Archival Weather

Chicago O'Hare International

Chicago, Illinois (KORD)

Report from: Wednesday, July 19, 2023 7:51 PM CDT
Current time: Monday, July 22, 2024 6:41 AM CDT

Current weather – Weather history – Daily summaries
Weather forecast

Temperature26.7°C (80.1°F)
Heat index27.2°C (80.9°F)
Dew point13.9°C (57.0°F)
Winds 6 kts (3.1 m/s, 6.9 mph) West (260°)
Visibility10 mi. (16.1 km)
Clouds Ceiling: Broken clouds 25,000 ft. (7,620 m)
Broken clouds 30,000 ft. (9,144 m)
Altimeter29.99 in.Hg (1016 mB)
Relative humidity45 %
Density altitude1,516 ft. (462 m)
Sea-level pressure101.5 kPa (1015 mB, 29.97 in.Hg)
Remarks Automated weather observing station with precipitation discriminator
Flight conditions Visual Meteorological Conditions
Raw dataKORD 200051Z 26006KT 10SM BKN250 BKN300 27/14 A2999 RMK AO2 SLP149 T02670139
An error has occurred. This application may no longer respond until reloaded. Reload 🗙